createdAt,value
2019-05-19T00:00:42.992Z,17.30
2019-05-19T00:02:15.428Z,17.30
2019-05-19T00:03:47.759Z,17.30
2019-05-19T00:05:20.248Z,17.30
2019-05-19T00:06:52.690Z,17.30
2019-05-19T00:08:25.093Z,17.30
2019-05-19T00:09:57.497Z,17.20
2019-05-19T00:11:30.208Z,17.20
2019-05-19T00:13:02.640Z,17.30
2019-05-19T00:14:35.124Z,17.20
2019-05-19T00:16:07.514Z,17.20
2019-05-19T00:17:40.134Z,17.20
2019-05-19T00:19:25.762Z,17.20
2019-05-19T00:23:07.251Z,17.20
2019-05-19T00:27:13.403Z,17.10
2019-05-19T00:40:50.334Z,16.90
2019-05-19T00:41:06.894Z,16.80
2019-05-19T00:42:39.509Z,16.80
2019-05-19T00:44:30.591Z,16.80
2019-05-19T00:46:21.211Z,16.70
2019-05-19T00:48:11.754Z,16.70
2019-05-19T00:49:47.415Z,16.70
2019-05-19T00:51:20.192Z,16.60
2019-05-19T00:52:52.712Z,16.60
2019-05-19T00:54:31.304Z,16.60
2019-05-19T00:56:15.220Z,16.50
2019-05-19T00:57:55.337Z,16.50
2019-05-19T00:59:27.884Z,16.50
2019-05-19T01:01:11.411Z,16.50
2019-05-19T01:02:43.908Z,16.50
2019-05-19T01:04:36.027Z,16.50
2019-05-19T01:06:28.321Z,16.40
2019-05-19T01:08:00.745Z,16.40
2019-05-19T01:09:33.248Z,16.40
2019-05-19T01:11:05.882Z,16.40
2019-05-19T01:12:38.917Z,16.30
2019-05-19T01:14:11.478Z,16.30
2019-05-19T01:17:40.499Z,16.20
2019-05-19T01:29:20.313Z,16.00
2019-05-19T01:30:55.887Z,16.00
2019-05-19T01:32:30.878Z,16.00
2019-05-19T01:34:08.442Z,15.90
2019-05-19T01:35:47.244Z,15.90
2019-05-19T01:43:27.784Z,15.80
2019-05-19T01:45:00.326Z,15.70
2019-05-19T01:46:32.779Z,15.70
2019-05-19T01:48:05.310Z,15.70
2019-05-19T01:49:37.775Z,15.60
2019-05-19T01:51:10.287Z,15.60
2019-05-19T01:52:42.735Z,15.60
2019-05-19T01:54:16.798Z,15.60
2019-05-19T01:55:49.425Z,15.60
2019-05-19T01:57:21.854Z,15.60
2019-05-19T01:58:54.400Z,15.60
2019-05-19T02:00:26.832Z,15.50
2019-05-19T02:01:59.248Z,15.50
2019-05-19T02:13:07.725Z,15.30
2019-05-19T02:14:58.972Z,15.20
2019-05-19T02:16:50.197Z,15.20
2019-05-19T02:18:41.652Z,15.10
2019-05-19T02:20:33.842Z,15.00
2019-05-19T02:22:06.606Z,14.90
2019-05-19T02:23:39.085Z,14.80
2019-05-19T02:25:11.623Z,14.80
2019-05-19T02:26:44.140Z,14.70
2019-05-19T02:28:16.629Z,14.70
2019-05-19T02:29:49.038Z,14.60
2019-05-19T02:31:21.484Z,14.60
2019-05-19T02:32:53.976Z,14.60
2019-05-19T02:34:26.390Z,14.60
2019-05-19T02:35:58.927Z,14.70
2019-05-19T02:37:31.353Z,14.60
2019-05-19T02:39:03.865Z,14.60
2019-05-19T02:40:36.278Z,14.60
2019-05-19T02:42:08.797Z,14.60
2019-05-19T02:43:41.278Z,14.60
2019-05-19T02:45:13.875Z,14.50
2019-05-19T02:46:46.385Z,14.50
2019-05-19T02:50:28.441Z,14.50
2019-05-19T02:52:00.974Z,14.50
2019-05-19T02:53:33.453Z,14.40
2019-05-19T02:55:06.356Z,14.40
2019-05-19T02:56:57.330Z,14.30
2019-05-19T02:58:48.762Z,14.30
2019-05-19T03:00:45.622Z,14.20
2019-05-19T03:02:36.542Z,14.20
2019-05-19T03:06:18.851Z,14.10
2019-05-19T03:08:09.727Z,14.10
2019-05-19T03:09:50.618Z,14.00
2019-05-19T03:11:23.153Z,14.00
2019-05-19T03:12:55.758Z,14.00
2019-05-19T03:14:28.176Z,14.00
2019-05-19T03:16:00.674Z,13.90
2019-05-19T03:17:33.222Z,14.00
2019-05-19T03:19:05.620Z,14.00
2019-05-19T03:20:38.110Z,14.00
2019-05-19T03:22:10.620Z,13.90
2019-05-19T03:23:43.056Z,14.00
2019-05-19T03:25:15.564Z,14.00
2019-05-19T03:26:48.082Z,14.00
2019-05-19T03:28:20.585Z,14.00
2019-05-19T03:29:53.071Z,14.00
2019-05-19T03:33:17.115Z,14.00
2019-05-19T03:35:07.891Z,14.00
2019-05-19T03:36:59.035Z,13.90
2019-05-19T03:38:50.312Z,14.00
2019-05-19T03:40:30.958Z,14.00
2019-05-19T03:42:03.445Z,14.00
2019-05-19T03:43:36.692Z,13.90
2019-05-19T03:45:09.146Z,13.90
2019-05-19T03:46:41.630Z,13.90
2019-05-19T03:48:14.237Z,13.90
2019-05-19T03:51:35.133Z,13.90
2019-05-19T03:53:11.412Z,13.80
2019-05-19T03:54:44.053Z,13.80
2019-05-19T03:56:34.875Z,13.80
2019-05-19T03:58:15.825Z,13.80
2019-05-19T03:59:48.313Z,13.70
2019-05-19T04:01:20.740Z,13.70
2019-05-19T04:02:53.168Z,13.70
2019-05-19T04:04:25.780Z,13.70
2019-05-19T04:05:58.264Z,13.70
2019-05-19T04:07:30.613Z,13.70
2019-05-19T04:09:03.033Z,13.70
2019-05-19T04:10:35.590Z,13.70
2019-05-19T04:12:08.057Z,13.70
2019-05-19T04:13:49.675Z,13.70
2019-05-19T04:15:22.443Z,13.70
2019-05-19T04:17:02.568Z,13.70
2019-05-19T04:18:33.736Z,13.60
2019-05-19T04:22:27.159Z,13.70
2019-05-19T04:24:19.724Z,13.70
2019-05-19T04:26:06.980Z,13.70
2019-05-19T04:30:07.239Z,13.60
2019-05-19T04:37:58.777Z,13.60
2019-05-19T04:39:30.113Z,13.60
2019-05-19T04:41:02.621Z,13.60
2019-05-19T04:42:35.049Z,13.60
2019-05-19T04:44:07.429Z,13.70
2019-05-19T04:45:39.936Z,13.70
2019-05-19T04:47:30.854Z,13.70
2019-05-19T05:01:48.002Z,13.80
2019-05-19T05:03:39.009Z,13.80
2019-05-19T05:05:11.505Z,13.80
2019-05-19T05:06:44.023Z,13.80
2019-05-19T05:08:28.672Z,13.80
2019-05-19T05:10:08.979Z,13.80
2019-05-19T05:11:59.525Z,13.80
2019-05-19T05:13:50.287Z,13.90
2019-05-19T05:19:23.089Z,13.90
2019-05-19T05:21:07.983Z,13.90
2019-05-19T05:24:59.017Z,14.00
2019-05-19T05:26:38.736Z,14.00
2019-05-19T05:51:03.808Z,14.00
2019-05-19T05:51:46.103Z,14.50
2019-05-19T05:53:18.588Z,14.50
2019-05-19T05:54:51.597Z,14.50
2019-05-19T05:56:24.041Z,14.60
2019-05-19T05:58:14.464Z,14.60
2019-05-19T05:59:53.473Z,14.60
2019-05-19T06:01:25.978Z,14.60
2019-05-19T06:02:58.535Z,14.70
2019-05-19T06:04:30.974Z,14.70
2019-05-19T06:06:03.603Z,14.80
2019-05-19T06:07:36.153Z,14.80
2019-05-19T06:09:08.607Z,14.90
2019-05-19T06:10:41.029Z,14.90
2019-05-19T06:12:14.451Z,14.90
2019-05-19T06:13:49.384Z,15.00
2019-05-19T06:15:20.883Z,15.00
2019-05-19T06:16:53.300Z,15.00
2019-05-19T06:18:25.660Z,15.00
2019-05-19T06:19:57.997Z,15.10
2019-05-19T06:21:30.476Z,15.10
2019-05-19T06:23:02.961Z,15.10
2019-05-19T06:24:35.384Z,15.20
2019-05-19T06:26:07.792Z,15.20
2019-05-19T06:27:40.160Z,15.20
2019-05-19T06:29:12.654Z,15.30
2019-05-19T06:30:45.122Z,15.30
2019-05-19T06:32:17.565Z,15.30
2019-05-19T06:33:50.003Z,15.30
2019-05-19T06:35:22.344Z,15.40
2019-05-19T06:36:55.234Z,15.40
2019-05-19T06:38:27.729Z,15.40
2019-05-19T06:40:00.202Z,15.40
2019-05-19T06:41:32.540Z,15.40
2019-05-19T06:43:04.969Z,15.40
2019-05-19T06:44:37.455Z,15.40
2019-05-19T06:46:09.804Z,15.40
2019-05-19T06:47:45.056Z,15.50
2019-05-19T06:49:17.472Z,15.50
2019-05-19T06:50:49.886Z,15.50
2019-05-19T06:52:22.422Z,15.50
2019-05-19T06:53:55.124Z,15.50
2019-05-19T06:55:27.487Z,15.50
2019-05-19T06:56:59.968Z,15.50
2019-05-19T06:58:32.480Z,15.50
2019-05-19T07:00:04.824Z,15.60
2019-05-19T07:01:37.169Z,15.60
2019-05-19T07:03:09.600Z,15.60
2019-05-19T07:04:42.010Z,15.60
2019-05-19T07:06:14.510Z,15.60
2019-05-19T07:07:46.975Z,15.60
2019-05-19T07:09:19.383Z,15.60
2019-05-19T07:10:51.879Z,15.70
2019-05-19T07:12:24.507Z,15.70
2019-05-19T07:13:57.025Z,15.70
2019-05-19T07:15:30.222Z,15.70
2019-05-19T07:17:02.689Z,15.70
2019-05-19T07:18:35.097Z,15.70
2019-05-19T07:20:07.538Z,15.80
2019-05-19T07:21:40.029Z,15.80
2019-05-19T07:23:12.452Z,15.80
2019-05-19T07:24:44.864Z,15.80
2019-05-19T07:26:17.372Z,15.90
2019-05-19T07:27:49.880Z,15.90
2019-05-19T07:29:22.371Z,16.00
2019-05-19T07:30:54.795Z,16.00
2019-05-19T07:32:27.241Z,16.00
2019-05-19T07:33:59.798Z,16.10
2019-05-19T07:35:32.395Z,16.10
2019-05-19T07:37:04.851Z,16.10
2019-05-19T07:38:37.476Z,16.20
2019-05-19T07:40:10.048Z,16.20
2019-05-19T07:41:42.537Z,16.20
2019-05-19T07:43:15.023Z,16.30
2019-05-19T07:44:47.392Z,16.30
2019-05-19T07:46:19.756Z,16.30
2019-05-19T07:47:52.257Z,16.30
2019-05-19T07:49:24.709Z,16.40
2019-05-19T07:50:57.185Z,16.40
2019-05-19T07:52:30.255Z,16.40
2019-05-19T07:54:02.836Z,16.40
2019-05-19T07:55:35.320Z,16.50
2019-05-19T07:57:07.712Z,16.50
2019-05-19T07:58:40.547Z,16.50
2019-05-19T08:00:14.552Z,16.60
2019-05-19T08:01:49.617Z,16.60
2019-05-19T08:03:21.464Z,16.70
2019-05-19T08:04:53.852Z,16.70
2019-05-19T08:06:26.365Z,16.70
2019-05-19T08:07:58.844Z,16.70
2019-05-19T08:09:31.280Z,16.80
2019-05-19T08:11:03.793Z,16.80
2019-05-19T08:12:36.320Z,16.80
2019-05-19T08:14:08.824Z,16.90
2019-05-19T08:15:41.252Z,16.90
2019-05-19T08:17:13.685Z,17.00
2019-05-19T08:18:46.197Z,17.00
2019-05-19T08:20:18.684Z,17.00
2019-05-19T08:21:51.117Z,17.00
2019-05-19T08:23:23.489Z,17.10
2019-05-19T08:24:55.971Z,17.20
2019-05-19T08:26:28.316Z,17.20
2019-05-19T08:28:08.447Z,17.20
2019-05-19T08:29:35.279Z,17.30
2019-05-19T08:31:07.794Z,17.30
2019-05-19T08:32:40.197Z,17.40
2019-05-19T08:34:12.708Z,17.40
2019-05-19T08:35:45.295Z,17.50
2019-05-19T08:37:17.704Z,17.50
2019-05-19T08:38:50.236Z,17.60
2019-05-19T08:40:22.812Z,17.60
2019-05-19T08:41:55.623Z,17.70
2019-05-19T08:43:28.135Z,17.70
2019-05-19T08:45:00.624Z,17.80
2019-05-19T08:46:33.057Z,17.80
2019-05-19T08:48:05.461Z,17.80
2019-05-19T08:49:37.896Z,17.80
2019-05-19T08:51:10.388Z,17.90
2019-05-19T08:52:42.811Z,17.90
2019-05-19T08:54:18.455Z,18.00
2019-05-19T08:55:49.317Z,18.00
2019-05-19T08:57:21.902Z,18.00
2019-05-19T08:58:54.577Z,18.10
2019-05-19T09:00:26.985Z,18.10
2019-05-19T09:01:59.410Z,18.10
2019-05-19T09:03:31.945Z,18.20
2019-05-19T09:05:04.404Z,18.20
2019-05-19T09:06:36.911Z,18.20
2019-05-19T09:08:09.408Z,18.30
2019-05-19T09:09:41.814Z,18.30
2019-05-19T09:11:14.300Z,18.40
2019-05-19T09:12:46.676Z,18.40
2019-05-19T09:14:19.012Z,18.50
2019-05-19T09:15:51.517Z,18.50
2019-05-19T09:17:24.016Z,18.60
2019-05-19T09:18:56.415Z,18.60
2019-05-19T09:20:28.852Z,18.60
2019-05-19T09:22:01.348Z,18.70
2019-05-19T09:23:33.765Z,18.80
2019-05-19T09:25:06.175Z,18.80
2019-05-19T09:26:38.650Z,18.80
2019-05-19T09:28:11.022Z,18.80
2019-05-19T09:29:43.721Z,18.80
2019-05-19T09:31:16.311Z,18.80
2019-05-19T09:32:48.717Z,18.80
2019-05-19T09:34:21.616Z,18.90
2019-05-19T09:35:54.117Z,18.90
2019-05-19T09:37:26.555Z,18.90
2019-05-19T09:38:58.916Z,19.00
2019-05-19T09:40:31.258Z,19.00
2019-05-19T09:42:03.739Z,19.10
2019-05-19T09:43:36.221Z,19.10
2019-05-19T09:45:08.732Z,19.20
2019-05-19T09:46:41.085Z,19.20
2019-05-19T09:48:13.487Z,19.20
2019-05-19T09:49:45.923Z,19.20
2019-05-19T09:51:18.261Z,19.30
2019-05-19T09:52:50.667Z,19.30
2019-05-19T09:54:23.731Z,19.20
2019-05-19T09:55:56.234Z,19.30
2019-05-19T09:57:28.663Z,19.30
2019-05-19T09:59:01.344Z,19.30
2019-05-19T10:00:33.779Z,19.30
2019-05-19T10:02:06.272Z,19.30
2019-05-19T10:03:38.700Z,19.30
2019-05-19T10:05:11.155Z,19.30
2019-05-19T10:06:43.690Z,19.40
2019-05-19T10:08:16.233Z,19.40
2019-05-19T10:09:48.573Z,19.40
2019-05-19T10:11:21.199Z,19.40
2019-05-19T10:12:53.687Z,19.50
2019-05-19T10:14:26.110Z,19.50
2019-05-19T10:15:58.520Z,19.50
2019-05-19T10:17:31.473Z,19.60
2019-05-19T10:19:03.911Z,19.60
2019-05-19T10:20:36.360Z,19.60
2019-05-19T10:22:08.836Z,19.70
2019-05-19T10:23:41.263Z,19.70
2019-05-19T10:25:22.953Z,19.70
2019-05-19T10:26:47.765Z,19.70
2019-05-19T10:28:20.231Z,19.80
2019-05-19T10:29:52.723Z,19.70
2019-05-19T10:31:25.219Z,19.80
2019-05-19T10:32:58.836Z,19.80
2019-05-19T10:34:31.425Z,19.80
2019-05-19T10:36:03.896Z,19.90
2019-05-19T10:37:36.252Z,19.90
2019-05-19T10:39:08.788Z,20.00
2019-05-19T10:40:41.200Z,20.00
2019-05-19T10:42:13.540Z,20.00
2019-05-19T10:43:46.043Z,20.00
2019-05-19T10:45:18.412Z,20.10
2019-05-19T10:46:50.820Z,20.10
2019-05-19T10:48:23.308Z,20.20
2019-05-19T10:49:55.747Z,20.20
2019-05-19T10:51:28.085Z,20.20
2019-05-19T10:53:00.572Z,20.30
2019-05-19T10:54:32.972Z,20.30
2019-05-19T10:56:05.322Z,20.30
2019-05-19T10:57:37.726Z,20.30
2019-05-19T10:59:10.062Z,20.40
2019-05-19T11:00:42.432Z,20.50
2019-05-19T11:02:14.899Z,20.50
2019-05-19T11:03:47.572Z,20.50
2019-05-19T11:05:19.999Z,20.60
2019-05-19T11:06:52.448Z,20.60
2019-05-19T11:08:24.907Z,20.70
2019-05-19T11:09:57.316Z,20.70
2019-05-19T11:11:29.810Z,20.80
2019-05-19T11:13:02.237Z,20.80
2019-05-19T11:14:34.571Z,20.90
2019-05-19T11:16:07.186Z,20.90
2019-05-19T11:17:39.687Z,20.90
2019-05-19T11:19:12.086Z,21.00
2019-05-19T11:20:44.643Z,21.10
2019-05-19T11:22:17.112Z,21.10
2019-05-19T11:23:49.441Z,21.20
2019-05-19T11:25:33.360Z,21.20
2019-05-19T11:26:55.952Z,21.30
2019-05-19T11:28:28.375Z,21.40
2019-05-19T11:30:00.829Z,21.40
2019-05-19T11:31:33.315Z,21.50
2019-05-19T11:33:05.912Z,21.60
2019-05-19T11:34:38.334Z,21.70
2019-05-19T11:36:10.804Z,21.70
2019-05-19T11:37:43.142Z,21.80
2019-05-19T11:39:15.563Z,21.90
2019-05-19T11:40:47.901Z,21.90
2019-05-19T11:42:20.301Z,22.00
2019-05-19T11:43:52.807Z,22.10
2019-05-19T11:45:25.276Z,22.20
2019-05-19T11:46:57.618Z,22.20
2019-05-19T11:48:30.018Z,22.30
2019-05-19T11:50:02.777Z,22.40
2019-05-19T11:51:35.250Z,22.40
2019-05-19T11:53:07.656Z,22.50
2019-05-19T11:54:40.302Z,22.60
2019-05-19T11:56:12.642Z,22.70
2019-05-19T11:57:45.125Z,22.70
2019-05-19T11:59:17.527Z,22.80
2019-05-19T12:00:49.883Z,22.90
2019-05-19T12:02:22.361Z,22.90
2019-05-19T12:03:55.550Z,23.00
2019-05-19T12:05:28.184Z,23.00
2019-05-19T12:07:00.667Z,23.10
2019-05-19T12:08:33.241Z,23.20
2019-05-19T12:10:05.728Z,23.20
2019-05-19T12:11:38.148Z,23.20
2019-05-19T12:13:10.591Z,23.20
2019-05-19T12:14:43.004Z,23.20
2019-05-19T12:16:15.520Z,23.30
2019-05-19T12:17:48.029Z,23.20
2019-05-19T12:19:20.632Z,23.20
2019-05-19T12:20:53.124Z,23.20
2019-05-19T12:22:25.755Z,23.20
2019-05-19T12:23:58.160Z,23.20
2019-05-19T12:25:30.498Z,23.30
2019-05-19T12:27:02.939Z,23.40
2019-05-19T12:28:35.378Z,23.40
2019-05-19T12:30:07.831Z,23.50
2019-05-19T12:31:40.343Z,23.60
2019-05-19T12:33:12.858Z,23.70
2019-05-19T12:34:45.348Z,23.70
2019-05-19T12:36:17.764Z,23.80
2019-05-19T12:37:50.110Z,23.90
2019-05-19T12:39:22.607Z,24.00
2019-05-19T12:40:55.066Z,24.10
2019-05-19T12:42:27.495Z,24.10
2019-05-19T12:43:59.976Z,24.20
2019-05-19T12:45:32.454Z,24.30
2019-05-19T12:47:04.838Z,24.40
2019-05-19T12:48:37.357Z,24.40
2019-05-19T12:50:09.826Z,24.40
2019-05-19T12:51:42.234Z,24.50
2019-05-19T12:53:14.635Z,24.60
2019-05-19T12:54:47.002Z,24.70
2019-05-19T12:56:19.421Z,24.80
2019-05-19T12:57:51.896Z,24.90
2019-05-19T12:59:24.393Z,25.10
2019-05-19T13:00:56.758Z,25.10
2019-05-19T13:02:29.226Z,25.30
2019-05-19T13:04:01.583Z,25.40
2019-05-19T13:05:34.000Z,25.40
2019-05-19T13:07:06.442Z,25.60
2019-05-19T13:08:38.911Z,25.70
2019-05-19T13:10:11.263Z,25.90
2019-05-19T13:11:43.746Z,26.00
2019-05-19T13:13:16.155Z,26.20
2019-05-19T13:14:48.588Z,26.30
2019-05-19T13:16:20.998Z,26.60
2019-05-19T13:17:53.492Z,26.80
2019-05-19T13:19:25.950Z,27.00
2019-05-19T13:20:58.404Z,27.30
2019-05-19T13:22:30.888Z,27.60
2019-05-19T13:24:03.304Z,27.90
2019-05-19T13:25:36.175Z,28.30
2019-05-19T13:27:08.583Z,28.70
2019-05-19T13:28:41.003Z,29.10
2019-05-19T13:30:13.704Z,29.50
2019-05-19T13:31:46.284Z,29.80
2019-05-19T13:33:18.622Z,30.10
2019-05-19T13:34:51.045Z,30.40
2019-05-19T13:36:23.477Z,30.60
2019-05-19T13:37:55.815Z,30.80
2019-05-19T13:39:28.262Z,31.00
2019-05-19T13:41:00.728Z,31.30
2019-05-19T13:42:33.084Z,31.70
2019-05-19T13:44:05.574Z,32.10
2019-05-19T13:45:37.991Z,32.60
2019-05-19T13:47:10.424Z,33.00
2019-05-19T13:48:42.824Z,33.40
2019-05-19T13:50:15.228Z,33.80
2019-05-19T13:51:47.592Z,34.30
2019-05-19T13:53:20.069Z,34.70
2019-05-19T13:54:52.481Z,35.20
2019-05-19T13:56:24.902Z,35.50
2019-05-19T13:57:57.312Z,35.70
2019-05-19T13:59:30.014Z,35.90
2019-05-19T14:01:02.351Z,36.10
2019-05-19T14:02:34.852Z,36.20
2019-05-19T14:04:07.352Z,36.40
2019-05-19T14:05:39.755Z,36.60
2019-05-19T14:07:12.250Z,36.80
2019-05-19T14:08:44.674Z,37.00
2019-05-19T14:10:17.092Z,37.30
2019-05-19T14:11:49.576Z,37.80
2019-05-19T14:13:21.988Z,38.10
2019-05-19T14:14:54.402Z,38.30
2019-05-19T14:16:26.876Z,38.40
2019-05-19T14:17:59.294Z,38.30
2019-05-19T14:19:31.829Z,38.20
2019-05-19T14:21:04.249Z,38.20
2019-05-19T14:22:36.751Z,38.10
2019-05-19T14:24:09.232Z,38.00
2019-05-19T14:25:41.634Z,37.80
2019-05-19T14:27:28.416Z,37.60
2019-05-19T14:28:48.107Z,37.40
2019-05-19T14:30:20.596Z,37.20
2019-05-19T14:31:52.956Z,37.00
2019-05-19T14:33:25.363Z,36.70
2019-05-19T14:34:57.778Z,36.40
2019-05-19T14:36:30.256Z,36.20
2019-05-19T14:38:02.688Z,35.90
2019-05-19T14:39:35.186Z,35.60
2019-05-19T14:41:07.658Z,35.40
2019-05-19T14:42:40.096Z,35.20
2019-05-19T14:44:12.564Z,35.00
2019-05-19T14:45:45.075Z,34.70
2019-05-19T14:47:17.516Z,34.50
2019-05-19T14:48:50.016Z,34.20
2019-05-19T14:50:22.436Z,33.90
2019-05-19T14:51:54.910Z,33.60
2019-05-19T14:53:27.346Z,33.30
2019-05-19T14:54:59.764Z,33.10
2019-05-19T14:56:33.750Z,32.90
2019-05-19T14:58:06.407Z,32.70
2019-05-19T14:59:38.885Z,32.60
2019-05-19T15:01:11.293Z,32.40
2019-05-19T15:02:43.692Z,32.30
2019-05-19T15:04:16.191Z,32.10
2019-05-19T15:05:48.598Z,31.80
2019-05-19T15:07:21.008Z,31.60
2019-05-19T15:08:53.509Z,31.40
2019-05-19T15:10:25.916Z,31.20
2019-05-19T15:11:59.355Z,30.90
2019-05-19T15:13:32.575Z,30.70
2019-05-19T15:15:05.380Z,30.40
2019-05-19T15:16:38.935Z,30.10
2019-05-19T15:18:11.285Z,29.90
2019-05-19T15:19:43.775Z,29.60
2019-05-19T15:21:16.480Z,29.30
2019-05-19T15:22:48.979Z,29.10
2019-05-19T15:24:21.398Z,28.80
2019-05-19T15:25:53.825Z,28.60
2019-05-19T15:27:26.300Z,28.40
2019-05-19T15:28:58.635Z,28.20
2019-05-19T15:30:31.189Z,28.00
2019-05-19T15:32:03.773Z,27.80
2019-05-19T15:33:38.680Z,27.60
2019-05-19T15:35:10.577Z,27.40
2019-05-19T15:36:43.073Z,27.30
2019-05-19T15:38:15.495Z,27.20
2019-05-19T15:39:47.972Z,27.00
2019-05-19T15:41:20.464Z,26.80
2019-05-19T15:42:52.959Z,26.70
2019-05-19T15:44:25.374Z,26.50
2019-05-19T15:45:57.724Z,26.30
2019-05-19T15:47:30.154Z,26.10
2019-05-19T15:49:02.858Z,26.00
2019-05-19T15:50:35.357Z,25.80
2019-05-19T15:52:07.771Z,25.60
2019-05-19T15:53:40.185Z,25.50
2019-05-19T15:55:12.665Z,25.30
2019-05-19T15:56:45.069Z,25.20
2019-05-19T15:58:17.522Z,25.00
2019-05-19T15:59:49.979Z,24.90
2019-05-19T16:01:22.309Z,24.80
2019-05-19T16:02:54.736Z,24.80
2019-05-19T16:04:27.260Z,24.70
2019-05-19T16:05:59.669Z,24.70
2019-05-19T16:07:32.095Z,24.60
2019-05-19T16:09:04.567Z,24.60
2019-05-19T16:10:36.970Z,24.60
2019-05-19T16:12:09.479Z,24.50
2019-05-19T16:13:41.990Z,24.50
2019-05-19T16:15:14.472Z,24.50
2019-05-19T16:16:46.879Z,24.50
2019-05-19T16:18:19.402Z,24.40
2019-05-19T16:19:51.739Z,24.40
2019-05-19T16:21:24.146Z,24.40
2019-05-19T16:22:56.645Z,24.40
2019-05-19T16:24:29.065Z,24.30
2019-05-19T16:26:01.538Z,24.30
2019-05-19T16:27:33.946Z,24.30
2019-05-19T16:29:06.393Z,24.30
2019-05-19T16:30:39.174Z,24.30
2019-05-19T16:32:11.599Z,24.20
2019-05-19T16:33:44.024Z,24.20
2019-05-19T16:35:16.433Z,24.10
2019-05-19T16:36:48.844Z,24.10
2019-05-19T16:38:21.254Z,24.10
2019-05-19T16:39:53.753Z,24.10
2019-05-19T16:41:26.237Z,24.10
2019-05-19T16:43:02.219Z,24.00
2019-05-19T16:44:32.773Z,24.00
2019-05-19T16:46:05.247Z,23.90
2019-05-19T16:47:37.597Z,23.90
2019-05-19T16:49:10.068Z,23.90
2019-05-19T16:50:42.533Z,23.90
2019-05-19T16:52:14.918Z,23.90
2019-05-19T16:53:47.316Z,23.80
2019-05-19T16:55:19.733Z,23.80
2019-05-19T16:56:52.069Z,23.80
2019-05-19T16:58:24.559Z,23.80
2019-05-19T16:59:56.963Z,23.80
2019-05-19T17:01:29.332Z,23.80
2019-05-19T17:03:01.735Z,23.70
2019-05-19T17:04:34.139Z,23.70
2019-05-19T17:06:06.507Z,23.70
2019-05-19T17:07:38.931Z,23.70
2019-05-19T17:09:11.336Z,23.70
2019-05-19T17:10:43.699Z,23.70
2019-05-19T17:12:16.131Z,23.70
2019-05-19T17:13:48.460Z,23.60
2019-05-19T17:15:22.029Z,23.60
2019-05-19T17:16:54.620Z,23.60
2019-05-19T17:18:27.023Z,23.60
2019-05-19T17:19:59.431Z,23.50
2019-05-19T17:21:31.859Z,23.50
2019-05-19T17:23:04.366Z,23.40
2019-05-19T17:24:36.759Z,23.40
2019-05-19T17:26:09.391Z,23.30
2019-05-19T17:27:41.833Z,23.30
2019-05-19T17:29:14.236Z,23.20
2019-05-19T17:30:47.038Z,23.20
2019-05-19T17:32:19.512Z,23.20
2019-05-19T17:33:51.876Z,23.10
2019-05-19T17:35:24.452Z,23.10
2019-05-19T17:36:56.924Z,23.00
2019-05-19T17:38:29.388Z,23.00
2019-05-19T17:40:03.400Z,22.90
2019-05-19T17:41:35.820Z,22.90
2019-05-19T17:43:08.279Z,22.80
2019-05-19T17:44:40.760Z,22.80
2019-05-19T17:46:13.247Z,22.70
2019-05-19T17:47:45.600Z,22.60
2019-05-19T17:49:18.103Z,22.50
2019-05-19T17:50:50.583Z,22.50
2019-05-19T17:52:23.011Z,22.40
2019-05-19T17:53:55.616Z,22.30
2019-05-19T17:55:28.179Z,22.20
2019-05-19T17:57:00.583Z,22.10
2019-05-19T17:58:33.011Z,22.00
2019-05-19T18:00:05.513Z,21.90
2019-05-19T18:01:38.247Z,21.80
2019-05-19T18:03:10.707Z,21.70
2019-05-19T18:04:43.102Z,21.70
2019-05-19T18:06:15.503Z,21.60
2019-05-19T18:07:47.918Z,21.40
2019-05-19T18:09:20.344Z,21.30
2019-05-19T18:10:52.750Z,21.30
2019-05-19T18:12:25.155Z,21.20
2019-05-19T18:13:57.621Z,21.10
2019-05-19T18:15:30.268Z,21.00
2019-05-19T18:17:02.759Z,20.90
2019-05-19T18:18:35.267Z,20.80
2019-05-19T18:20:07.695Z,20.80
2019-05-19T18:21:40.103Z,20.70
2019-05-19T18:23:12.578Z,20.70
2019-05-19T18:24:45.051Z,20.70
2019-05-19T18:26:17.550Z,20.60
2019-05-19T18:27:50.028Z,20.50
2019-05-19T18:29:31.087Z,20.50
2019-05-19T18:30:56.564Z,20.50
2019-05-19T18:32:29.042Z,20.50
2019-05-19T18:34:01.380Z,20.40
2019-05-19T18:35:33.783Z,20.40
2019-05-19T18:37:06.291Z,20.40
2019-05-19T18:38:38.696Z,20.30
2019-05-19T18:40:11.180Z,20.30
2019-05-19T18:41:43.640Z,20.30
2019-05-19T18:43:16.039Z,20.30
2019-05-19T18:44:48.445Z,20.30
2019-05-19T18:46:20.951Z,20.30
2019-05-19T18:47:53.354Z,20.30
2019-05-19T18:49:25.764Z,20.30
2019-05-19T18:50:58.240Z,20.30
2019-05-19T18:52:30.680Z,20.30
2019-05-19T18:54:03.151Z,20.20
2019-05-19T18:55:35.636Z,20.20
2019-05-19T18:57:07.987Z,20.20
2019-05-19T18:58:40.399Z,20.10
2019-05-19T19:00:12.732Z,20.10
2019-05-19T19:01:45.304Z,20.10
2019-05-19T19:03:17.645Z,20.00
2019-05-19T19:04:50.126Z,20.00
2019-05-19T19:06:22.535Z,19.90
2019-05-19T19:07:55.034Z,19.90
2019-05-19T19:09:27.553Z,19.90
2019-05-19T19:10:59.965Z,19.80
2019-05-19T19:12:32.461Z,19.80
2019-05-19T19:14:05.157Z,19.70
2019-05-19T19:15:37.509Z,19.70
2019-05-19T19:17:10.027Z,19.70
2019-05-19T19:18:42.510Z,19.60
2019-05-19T19:20:14.983Z,19.60
2019-05-19T19:21:47.808Z,19.50
2019-05-19T19:23:20.825Z,19.50
2019-05-19T19:24:53.310Z,19.50
2019-05-19T19:26:25.896Z,19.50
2019-05-19T19:27:58.703Z,19.50
2019-05-19T19:29:31.135Z,19.50
2019-05-19T19:31:03.704Z,19.50
2019-05-19T19:32:36.313Z,19.50
2019-05-19T19:34:08.698Z,19.50
2019-05-19T19:35:41.497Z,19.50
2019-05-19T19:37:14.024Z,19.50
2019-05-19T19:38:46.462Z,19.50
2019-05-19T19:40:18.969Z,19.50
2019-05-19T19:41:51.416Z,19.50
2019-05-19T19:43:23.945Z,19.50
2019-05-19T19:44:56.753Z,19.50
2019-05-19T19:46:29.250Z,19.50
2019-05-19T19:48:02.068Z,19.50
2019-05-19T19:49:34.667Z,19.50
2019-05-19T19:51:07.482Z,19.50
2019-05-19T19:52:39.985Z,19.40
2019-05-19T19:54:12.684Z,19.30
2019-05-19T19:55:45.169Z,19.30
2019-05-19T19:57:17.776Z,19.10
2019-05-19T19:58:50.304Z,19.00
2019-05-19T20:00:22.863Z,18.90
2019-05-19T20:01:55.428Z,18.70
2019-05-19T20:03:28.205Z,18.60
2019-05-19T20:05:00.735Z,18.40
2019-05-19T20:06:33.176Z,18.20
2019-05-19T20:08:05.979Z,18.10
2019-05-19T20:09:38.770Z,18.00
2019-05-19T20:11:11.152Z,17.80
2019-05-19T20:12:43.737Z,17.70
2019-05-19T20:14:16.224Z,17.70
2019-05-19T20:15:48.684Z,17.60
2019-05-19T20:17:21.206Z,17.50
2019-05-19T20:18:53.824Z,17.40
2019-05-19T20:20:26.282Z,17.40
2019-05-19T20:21:58.804Z,17.40
2019-05-19T20:23:31.473Z,17.30
2019-05-19T20:25:03.923Z,17.30
2019-05-19T20:26:36.409Z,17.30
2019-05-19T20:28:09.537Z,17.30
2019-05-19T20:29:41.973Z,17.30
2019-05-19T20:31:14.467Z,17.40
2019-05-19T20:32:47.492Z,17.40
2019-05-19T20:34:19.925Z,17.40
2019-05-19T20:35:52.426Z,17.40
2019-05-19T20:37:24.992Z,17.50
2019-05-19T20:38:57.446Z,17.40
2019-05-19T20:40:30.960Z,17.30
2019-05-19T20:42:05.435Z,17.30
2019-05-19T20:43:38.121Z,17.20
2019-05-19T20:45:10.608Z,17.10
2019-05-19T20:46:44.592Z,17.00
2019-05-19T20:48:17.077Z,17.00
2019-05-19T20:49:49.547Z,17.00
2019-05-19T20:51:22.760Z,16.90
2019-05-19T20:52:55.365Z,16.90
2019-05-19T20:54:27.996Z,16.90
2019-05-19T20:56:00.834Z,16.80
2019-05-19T20:57:33.724Z,16.80
2019-05-19T20:59:08.027Z,16.80
2019-05-19T21:00:49.849Z,16.80
2019-05-19T21:02:14.560Z,16.80
2019-05-19T21:03:49.672Z,16.80
2019-05-19T21:05:22.478Z,16.80
2019-05-19T21:06:54.905Z,16.80
2019-05-19T21:08:27.682Z,16.90
2019-05-19T21:10:00.130Z,16.90
2019-05-19T21:11:32.542Z,17.00
2019-05-19T21:13:05.274Z,17.00
2019-05-19T21:14:37.788Z,17.10
2019-05-19T21:16:10.211Z,17.20
2019-05-19T21:17:42.609Z,17.20
2019-05-19T21:19:15.014Z,17.30
2019-05-19T21:20:49.026Z,17.30
2019-05-19T21:22:22.015Z,17.30
2019-05-19T21:23:55.113Z,17.30
2019-05-19T21:25:27.539Z,17.40
2019-05-19T21:27:00.147Z,17.40
2019-05-19T21:28:32.948Z,17.50
2019-05-19T21:30:05.345Z,17.50
2019-05-19T21:31:38.147Z,17.60
2019-05-19T21:33:10.861Z,17.50
2019-05-19T21:34:43.357Z,17.50
2019-05-19T21:36:15.831Z,17.50
2019-05-19T21:37:48.310Z,17.50
2019-05-19T21:39:20.711Z,17.60
2019-05-19T21:40:53.143Z,17.50
2019-05-19T21:42:25.619Z,17.60
2019-05-19T21:43:57.955Z,17.50
2019-05-19T21:45:30.446Z,17.50